Terminal Aerodrome Forecast
Issued by NWS

Home | Current Version | Previous Version | Text Only | Print | Product List | Glossary On
Versions: 1 2 3 4 5 6 7 8 9 10 11 12 13 14
000
FTUS45 KTFX 221400 AAA
TAFHLN
TAF AMD
KHLN 221433Z 2215/2312 27018G25KT P6SM VCSH SCT050 BKN120
     FM230200 26011KT P6SM SCT050=

USA.gov is the U.S. government's official web portal to all federal, state and local government web resources and services.